You are not logged in, Click here to log in
中部国際空港NGO / RJGG 日本中部地區愛知縣名古屋市以南的常滑市、伊勢灣上的一個人工島上
ICAO: RJGG Country: 日本中部地區愛知縣名古屋市以南的常滑市、伊勢灣上的一個人工島上
Latitude: 34.8591 Longitude: 136.815
Total Arrivals: 35 Total Departures: 40
Latest Arrival: HDJ331 (RJOA-RJGG)Arthur. Kung Latest Departure: MU744 (RJGG-ZBAA)Arthur. Kung
Scenery:
METAR : RJGG 240630Z 28021KT 9999 FEW040 19/07 Q1008 NOSIG

中部国際空港NGO

You are accessing this site from IP address 34.201.9.19. Virtual Airline. CMS by phpVMS.Website designed by Zumeweb and edited by Theo Bearman.
There is 0 User(s) Online: | and 19 Guest(s) Online.
All information on this site is for fight simulation purposes only. This site is for flight logging for pilots of Virtual Airline&模擬飛行論壇 FlySim only.